createdAt,value
2022-10-11T14:13:39.379Z,6.60
2022-10-11T14:16:19.721Z,8.82
2022-10-11T14:18:49.085Z,8.10
2022-10-11T14:21:20.405Z,7.53
2022-10-11T14:26:21.577Z,12.55
2022-10-11T14:29:01.087Z,5.30
2022-10-11T14:31:31.081Z,7.05
2022-10-11T14:33:59.625Z,5.80
2022-10-11T14:36:28.105Z,10.63
2022-10-11T14:38:56.361Z,9.10
2022-10-11T14:41:24.773Z,9.40
2022-10-11T14:43:56.454Z,7.93
2022-10-11T14:46:26.569Z,4.88
2022-10-11T14:48:56.245Z,6.30
2022-10-11T14:51:32.514Z,5.80
2022-10-11T14:54:00.895Z,6.05
2022-10-11T14:56:28.990Z,15.00
2022-10-11T14:58:57.098Z,10.88
2022-10-11T15:01:25.528Z,7.60
2022-10-11T15:03:53.685Z,6.40
2022-10-11T15:06:28.449Z,13.60
2022-10-11T15:08:56.651Z,9.13
2022-10-11T15:11:25.498Z,11.02
2022-10-11T15:13:54.280Z,8.35
2022-10-11T15:16:22.945Z,11.73
2022-10-11T15:18:52.080Z,11.88
2022-10-11T15:21:22.410Z,8.77
2022-10-11T15:23:51.598Z,11.68
2022-10-11T15:26:22.786Z,6.78
2022-10-11T15:28:52.044Z,19.10
2022-10-11T15:31:20.517Z,10.43
2022-10-11T15:33:48.929Z,7.60
2022-10-11T15:36:19.588Z,9.23
2022-10-11T15:38:48.446Z,12.77
2022-10-11T15:41:18.955Z,10.57
2022-10-11T15:43:48.697Z,6.07
2022-10-11T15:46:22.358Z,6.15
2022-10-11T15:48:51.757Z,9.10
2022-10-11T15:51:20.224Z,10.25
2022-10-11T15:53:48.302Z,11.80
2022-10-11T15:56:19.023Z,12.13
2022-10-11T15:58:47.467Z,14.95
2022-10-11T16:01:18.995Z,12.18
2022-10-11T16:03:49.127Z,6.80
2022-10-11T16:06:18.290Z,11.38
2022-10-11T16:08:47.814Z,12.25
2022-10-11T16:11:16.211Z,9.57
2022-10-11T16:13:45.214Z,11.05
2022-10-11T16:16:13.682Z,8.63
2022-10-11T16:18:41.787Z,8.45
2022-10-11T16:21:11.838Z,13.57
2022-10-11T16:23:40.141Z,12.45
2022-10-11T16:26:12.105Z,13.98
2022-10-11T16:28:42.127Z,13.38
2022-10-11T16:31:13.752Z,17.50
2022-10-11T16:33:47.983Z,20.75
2022-10-11T16:36:32.125Z,17.42
2022-10-11T16:39:02.131Z,12.45
2022-10-11T16:41:30.542Z,17.85
2022-10-11T16:43:58.772Z,13.35
2022-10-11T16:46:27.254Z,13.52
2022-10-11T16:48:56.265Z,13.52
2022-10-11T16:51:24.954Z,17.92
2022-10-11T16:53:53.737Z,22.60
2022-10-11T16:56:22.828Z,15.50
2022-10-11T16:58:52.669Z,18.00
2022-10-11T17:01:21.193Z,12.10
2022-10-11T17:03:50.560Z,20.63
2022-10-11T17:06:19.447Z,17.48
2022-10-11T17:08:47.809Z,11.93
2022-10-11T17:11:17.724Z,24.33
2022-10-11T17:13:47.713Z,18.50
2022-10-11T17:16:17.331Z,12.60
2022-10-11T17:18:45.683Z,16.02
2022-10-11T17:21:15.820Z,14.45
2022-10-11T17:23:44.371Z,11.70
2022-10-11T17:26:17.455Z,15.10
2022-10-11T17:28:46.332Z,16.23
2022-10-11T17:31:14.596Z,11.80
2022-10-11T17:33:43.088Z,19.50
2022-10-11T17:36:32.119Z,12.43
2022-10-11T17:39:03.833Z,14.10
2022-10-11T17:41:32.526Z,11.02
2022-10-11T17:44:02.924Z,17.48
2022-10-11T17:46:34.278Z,19.45
2022-10-11T17:51:37.422Z,21.42
2022-10-11T17:54:06.532Z,23.50
2022-10-11T17:56:37.997Z,17.63
2022-10-11T17:59:07.459Z,23.23
2022-10-11T18:01:35.890Z,16.77
2022-10-11T18:04:06.186Z,21.52
2022-10-11T18:06:39.115Z,23.45
2022-10-11T18:09:07.304Z,18.35
2022-10-11T18:11:35.709Z,26.15
2022-10-11T18:14:05.301Z,23.55
2022-10-11T18:16:33.929Z,24.70
2022-10-11T18:19:07.272Z,18.08
2022-10-11T18:21:37.856Z,30.17
2022-10-11T18:24:11.001Z,19.25
2022-10-11T18:26:39.882Z,26.65
2022-10-11T18:29:08.227Z,24.90
2022-10-11T18:31:36.662Z,23.08
2022-10-11T18:34:06.280Z,21.33
2022-10-11T18:36:34.875Z,23.55
2022-10-11T18:39:05.949Z,28.20
2022-10-11T18:41:35.736Z,23.00
2022-10-11T18:44:06.790Z,26.73
2022-10-11T18:46:35.626Z,29.10
2022-10-11T18:49:03.904Z,21.80
2022-10-11T18:51:34.726Z,27.75
2022-10-11T18:54:03.627Z,25.58
2022-10-11T18:56:34.634Z,31.90
2022-10-11T18:59:03.594Z,27.70
2022-10-11T19:01:38.347Z,31.75
2022-10-11T19:04:09.046Z,36.55
2022-10-11T19:06:43.094Z,25.92
2022-10-11T19:09:12.593Z,27.63
2022-10-11T19:11:41.451Z,28.30
2022-10-11T19:14:11.950Z,30.63
2022-10-11T19:16:49.795Z,25.98
2022-10-11T19:19:24.029Z,26.75
2022-10-11T19:21:52.615Z,32.75
2022-10-11T19:24:23.576Z,33.28
2022-10-11T19:26:53.216Z,39.45
2022-10-11T19:29:26.608Z,37.03
2022-10-11T19:31:57.138Z,37.95
2022-10-11T19:34:27.635Z,42.15
2022-10-11T19:36:56.672Z,36.08
2022-10-11T19:39:25.633Z,40.15
2022-10-11T19:41:53.965Z,36.38
2022-10-11T19:44:22.140Z,40.38
2022-10-11T19:46:51.894Z,46.03
2022-10-11T19:49:25.160Z,40.53
2022-10-11T19:51:55.627Z,37.10
2022-10-11T19:54:24.211Z,38.15
2022-10-11T19:56:52.789Z,36.78
2022-10-11T19:59:21.068Z,41.75
2022-10-11T20:01:52.777Z,37.90
2022-10-11T20:07:10.098Z,48.28
2022-10-11T20:09:38.236Z,54.17
2022-10-11T20:12:06.940Z,39.60
2022-10-11T20:14:35.438Z,47.22
2022-10-11T20:17:03.915Z,35.17
2022-10-11T20:19:32.144Z,37.40
2022-10-11T20:22:01.233Z,39.70
2022-10-11T20:24:33.527Z,43.65
2022-10-11T20:27:03.992Z,37.10
2022-10-11T20:29:32.242Z,42.08
2022-10-11T20:32:00.690Z,37.45
2022-10-11T20:34:29.114Z,39.97
2022-10-11T20:36:57.964Z,45.70
2022-10-11T20:39:26.218Z,41.53
2022-10-11T20:41:54.619Z,41.00
2022-10-11T20:44:22.804Z,41.47
2022-10-11T20:46:50.917Z,43.05
2022-10-11T20:49:20.084Z,50.72
2022-10-11T20:51:48.565Z,36.63
2022-10-11T20:54:16.943Z,39.80
2022-10-11T20:56:45.285Z,41.63
2022-10-11T20:59:13.435Z,40.70
2022-10-11T21:01:41.912Z,36.20
2022-10-11T21:04:17.937Z,40.22
2022-10-11T21:06:49.511Z,49.42
2022-10-11T21:09:17.871Z,34.42
2022-10-11T21:11:46.996Z,54.63
2022-10-11T21:14:15.474Z,41.38
